RYR3257 EGBB-EINN
Flight info
| Callsign | RYR3257 |
|---|---|
| Flight time | N/A |
| Altitude | 29000 |
| Route | ADMEX Y321 CPT/N0461F300 Q63 SAWPE DCT OZZIL DCT ARPAK DCT FELCA DCT OFSOX DCT SLANY DCT TIPUR TIPUR2E |
| Aircraft | B738/M-SDE2E3FGHIRWXY/LB1 |
Departure
| Time | N/A |
|---|---|
| Airport | Birmingham Airport (EGBB) |
Arrival
| Time | 2026-05-03 20:15 |
|---|---|
| Airport | Shannon Airport (EINN) |
| Time | Latitude | Longitude | Altitude | Speed | Heading |
|---|---|---|---|---|---|
| 2026-05-03 20:15 | 52.70061 | -8.91079 | 22 ft | 7 kts | 198° |
| 2026-05-03 20:15 | 52.70015 | -8.91103 | 21 ft | 7 kts | 198° |
| 2026-05-03 20:15 | 52.69968 | -8.91127 | 22 ft | 7 kts | 198° |
| 2026-05-03 20:15 | 52.69922 | -8.91152 | 23 ft | 7 kts | 198° |
| 2026-05-03 20:16 | 52.69874 | -8.91182 | 24 ft | 8 kts | 201° |
| 2026-05-03 20:16 | 52.69826 | -8.91212 | 21 ft | 7 kts | 200° |
| 2026-05-03 20:16 | 52.69779 | -8.91241 | 21 ft | 7 kts | 201° |
| 2026-05-03 20:16 | 52.69733 | -8.91267 | 22 ft | 7 kts | 197° |
| 2026-05-03 20:17 | 52.69659 | -8.91305 | 21 ft | 17 kts | 198° |
| 2026-05-03 20:17 | 52.69522 | -8.91381 | 23 ft | 23 kts | 198° |
| 2026-05-03 20:17 | 52.69374 | -8.91462 | 22 ft | 22 kts | 198° |
| 2026-05-03 20:17 | 52.69292 | -8.91508 | 21 ft | 11 kts | 199° |
| 2026-05-03 20:18 | 52.69241 | -8.91540 | 22 ft | 2 kts | 219° |
| 2026-05-03 20:18 | 52.69247 | -8.91569 | 21 ft | 3 kts | 304° |
| 2026-05-03 20:18 | 52.69268 | -8.91611 | 21 ft | 8 kts | 309° |
| 2026-05-03 20:18 | 52.69314 | -8.91697 | 21 ft | 11 kts | 319° |
| 2026-05-03 20:19 | 52.69380 | -8.91747 | 23 ft | 10 kts | 343° |
| 2026-05-03 20:19 | 52.69432 | -8.91819 | 21 ft | 10 kts | 294° |
| 2026-05-03 20:19 | 52.69453 | -8.91919 | 21 ft | 8 kts | 287° |
| 2026-05-03 20:19 | 52.69445 | -8.91964 | 21 ft | 2 kts | 231° |
| 2026-05-03 20:20 | 52.69432 | -8.91999 | 22 ft | 4 kts | 242° |
| 2026-05-03 20:20 | 52.69418 | -8.92037 | 23 ft | 4 kts | 223° |
| 2026-05-03 20:20 | 52.69391 | -8.92050 | 21 ft | 4 kts | 189° |
| 2026-05-03 20:20 | 52.69368 | -8.92055 | 24 ft | 0 kts | 187° |